createdAt,value
2018-03-17T00:00:05.244Z,966.78
2018-03-17T00:01:05.225Z,966.83
2018-03-17T00:02:05.339Z,966.80
2018-03-17T00:03:05.025Z,966.83
2018-03-17T00:04:05.792Z,966.81
2018-03-17T00:05:05.492Z,966.92
2018-03-17T00:06:05.412Z,967.00
2018-03-17T00:07:06.160Z,967.02
2018-03-17T00:08:05.350Z,966.89
2018-03-17T00:09:04.977Z,966.81
2018-03-17T00:10:05.630Z,966.92
2018-03-17T00:11:04.877Z,966.84
2018-03-17T00:12:05.541Z,966.78
2018-03-17T00:13:05.427Z,966.84
2018-03-17T00:14:04.997Z,966.89
2018-03-17T00:15:05.302Z,966.89
2018-03-17T00:16:05.806Z,967.01
2018-03-17T00:17:05.721Z,966.90
2018-03-17T00:18:05.665Z,967.01
2018-03-17T00:19:05.263Z,966.98
2018-03-17T00:20:05.652Z,966.90
2018-03-17T00:21:05.945Z,966.95
2018-03-17T00:22:05.854Z,966.95
2018-03-17T00:23:05.713Z,966.95
2018-03-17T00:24:04.970Z,966.90
2018-03-17T00:25:05.364Z,966.84
2018-03-17T00:26:05.763Z,967.01
2018-03-17T00:27:05.635Z,967.01
2018-03-17T00:28:05.205Z,967.05
2018-03-17T00:29:06.049Z,966.95
2018-03-17T00:30:04.950Z,967.06
2018-03-17T00:31:05.028Z,967.22
2018-03-17T00:32:05.182Z,967.06
2018-03-17T00:33:05.100Z,967.01
2018-03-17T00:34:05.512Z,967.11
2018-03-17T00:35:05.022Z,967.17
2018-03-17T00:36:05.018Z,967.09
2018-03-17T00:37:05.944Z,967.14
2018-03-17T00:38:05.448Z,967.01
2018-03-17T00:39:05.144Z,967.12
2018-03-17T00:40:05.673Z,966.96
2018-03-17T00:41:05.857Z,967.04
2018-03-17T00:42:05.688Z,966.99
2018-03-17T00:43:05.553Z,967.20
2018-03-17T00:44:05.217Z,967.15
2018-03-17T00:45:05.648Z,966.99
2018-03-17T00:46:05.314Z,967.23
2018-03-17T00:47:05.627Z,966.99
2018-03-17T00:48:05.488Z,967.10
2018-03-17T00:49:06.994Z,967.04
2018-03-17T00:50:05.260Z,967.00
2018-03-17T00:51:05.383Z,967.10
2018-03-17T00:52:05.382Z,967.18
2018-03-17T00:53:10.263Z,967.21
2018-03-17T00:54:04.928Z,967.15
2018-03-17T00:55:05.603Z,967.01
2018-03-17T00:56:05.849Z,967.15
2018-03-17T00:57:05.662Z,967.10
2018-03-17T00:58:05.374Z,967.24
2018-03-17T00:59:05.337Z,967.29
2018-03-17T01:00:05.359Z,967.13
2018-03-17T01:01:05.848Z,967.29
2018-03-17T01:02:05.671Z,967.35
2018-03-17T01:03:10.295Z,967.32
2018-03-17T01:04:05.018Z,967.35
2018-03-17T01:05:04.930Z,967.53
2018-03-17T01:06:05.409Z,967.29
2018-03-17T01:07:04.922Z,967.24
2018-03-17T01:08:06.426Z,967.29
2018-03-17T01:09:05.744Z,967.32
2018-03-17T01:10:05.852Z,967.21
2018-03-17T01:11:05.348Z,967.27
2018-03-17T01:12:05.244Z,967.21
2018-03-17T01:13:05.849Z,967.30
2018-03-17T01:14:05.460Z,967.30
2018-03-17T01:15:05.108Z,967.27
2018-03-17T01:16:05.635Z,967.11
2018-03-17T01:17:05.229Z,967.35
2018-03-17T01:18:05.690Z,967.33
2018-03-17T01:19:05.475Z,967.25
2018-03-17T01:20:05.530Z,967.27
2018-03-17T01:21:05.746Z,967.27
2018-03-17T01:22:04.904Z,967.33
2018-03-17T01:23:04.867Z,967.36
2018-03-17T01:24:06.516Z,967.08
2018-03-17T01:25:05.155Z,967.22
2018-03-17T01:26:04.896Z,967.16
2018-03-17T01:27:05.849Z,967.17
2018-03-17T01:28:05.814Z,967.19
2018-03-17T01:29:05.949Z,967.01
2018-03-17T01:30:05.354Z,967.22
2018-03-17T01:31:05.691Z,967.08
2018-03-17T01:32:05.326Z,967.16
2018-03-17T01:33:05.718Z,967.05
2018-03-17T01:34:05.596Z,967.05
2018-03-17T01:35:04.991Z,967.28
2018-03-17T01:36:04.958Z,967.01
2018-03-17T01:37:05.590Z,967.03
2018-03-17T01:38:05.274Z,967.03
2018-03-17T01:39:05.597Z,967.19
2018-03-17T01:40:05.339Z,966.99
2018-03-17T01:41:05.654Z,966.96
2018-03-17T01:42:05.330Z,967.06
2018-03-17T01:43:05.830Z,967.09
2018-03-17T01:44:04.896Z,967.03
2018-03-17T01:45:05.267Z,966.99
2018-03-17T01:46:05.742Z,966.99
2018-03-17T01:47:05.375Z,967.01
2018-03-17T01:48:05.674Z,966.93
2018-03-17T01:49:05.221Z,967.06
2018-03-17T01:50:05.749Z,966.96
2018-03-17T01:51:05.597Z,966.99
2018-03-17T01:52:05.327Z,966.80
2018-03-17T01:53:04.966Z,966.77
2018-03-17T01:54:04.893Z,966.94
2018-03-17T01:55:05.424Z,966.74
2018-03-17T01:56:05.396Z,966.80
2018-03-17T01:57:04.957Z,966.83
2018-03-17T01:58:05.675Z,966.83
2018-03-17T01:59:05.491Z,966.72
2018-03-17T02:00:04.887Z,966.66
2018-03-17T02:01:05.825Z,966.80
2018-03-17T02:02:05.255Z,966.78
2018-03-17T02:03:05.251Z,966.50
2018-03-17T02:04:10.000Z,966.31
2018-03-17T02:05:05.842Z,966.78
2018-03-17T02:06:05.441Z,966.61
2018-03-17T02:07:05.428Z,966.83
2018-03-17T02:08:05.580Z,966.53
2018-03-17T02:09:05.306Z,966.61
2018-03-17T02:10:05.757Z,966.70
2018-03-17T02:11:05.112Z,966.61
2018-03-17T02:12:05.401Z,966.61
2018-03-17T02:13:05.474Z,966.67
2018-03-17T02:14:05.620Z,966.75
2018-03-17T02:15:05.166Z,966.78
2018-03-17T02:16:05.276Z,966.61
2018-03-17T02:17:05.648Z,966.70
2018-03-17T02:18:05.493Z,966.73
2018-03-17T02:19:05.066Z,966.59
2018-03-17T02:20:05.576Z,966.64
2018-03-17T02:21:05.203Z,966.84
2018-03-17T02:22:05.800Z,966.92
2018-03-17T02:23:05.541Z,966.84
2018-03-17T02:24:05.416Z,966.73
2018-03-17T02:25:05.341Z,966.86
2018-03-17T02:26:05.307Z,966.67
2018-03-17T02:27:04.964Z,966.92
2018-03-17T02:28:05.745Z,966.81
2018-03-17T02:29:05.327Z,966.86
2018-03-17T02:30:05.084Z,966.62
2018-03-17T02:31:05.619Z,966.56
2018-03-17T02:32:05.437Z,966.81
2018-03-17T02:33:05.238Z,966.78
2018-03-17T02:34:05.553Z,966.76
2018-03-17T02:35:05.099Z,966.86
2018-03-17T02:36:05.236Z,966.73
2018-03-17T02:37:05.776Z,966.70
2018-03-17T02:38:05.571Z,966.78
2018-03-17T02:39:05.165Z,966.64
2018-03-17T02:40:04.989Z,966.59
2018-03-17T02:41:05.763Z,966.64
2018-03-17T02:42:05.132Z,966.70
2018-03-17T02:43:05.188Z,966.53
2018-03-17T02:44:05.111Z,966.53
2018-03-17T02:45:05.725Z,966.81
2018-03-17T02:46:05.693Z,966.70
2018-03-17T02:47:05.113Z,966.61
2018-03-17T02:48:05.153Z,966.78
2018-03-17T02:49:10.767Z,966.64
2018-03-17T02:50:05.645Z,966.64
2018-03-17T02:51:05.372Z,966.81
2018-03-17T02:52:05.328Z,966.76
2018-03-17T02:53:05.476Z,966.89
2018-03-17T02:54:10.538Z,966.84
2018-03-17T02:55:05.278Z,966.79
2018-03-17T02:56:06.145Z,966.84
2018-03-17T02:57:05.301Z,966.65
2018-03-17T02:58:05.252Z,966.82
2018-03-17T02:59:06.762Z,966.85
2018-03-17T03:00:05.013Z,966.74
2018-03-17T03:01:05.737Z,966.71
2018-03-17T03:02:05.593Z,966.90
2018-03-17T03:03:05.081Z,966.85
2018-03-17T03:04:05.548Z,966.96
2018-03-17T03:05:05.698Z,966.96
2018-03-17T03:06:05.219Z,966.94
2018-03-17T03:07:05.364Z,966.85
2018-03-17T03:08:05.708Z,966.91
2018-03-17T03:09:04.974Z,966.96
2018-03-17T03:10:10.927Z,966.99
2018-03-17T03:11:05.149Z,966.97
2018-03-17T03:12:05.661Z,966.94
2018-03-17T03:13:05.210Z,966.91
2018-03-17T03:14:05.362Z,966.99
2018-03-17T03:15:05.568Z,967.04
2018-03-17T03:16:04.991Z,967.00
2018-03-17T03:17:05.209Z,967.15
2018-03-17T03:18:04.897Z,967.10
2018-03-17T03:19:05.657Z,967.07
2018-03-17T03:20:05.049Z,966.94
2018-03-17T03:21:05.045Z,966.92
2018-03-17T03:22:05.225Z,966.86
2018-03-17T03:23:05.462Z,966.89
2018-03-17T03:24:05.195Z,966.92
2018-03-17T03:25:05.904Z,967.07
2018-03-17T03:26:05.793Z,967.00
2018-03-17T03:27:05.534Z,966.95
2018-03-17T03:28:05.205Z,967.02
2018-03-17T03:29:05.159Z,966.95
2018-03-17T03:30:05.194Z,967.02
2018-03-17T03:31:05.814Z,967.16
2018-03-17T03:32:05.653Z,966.89
2018-03-17T03:33:05.590Z,966.86
2018-03-17T03:34:05.137Z,966.75
2018-03-17T03:35:05.767Z,966.87
2018-03-17T03:36:05.242Z,966.89
2018-03-17T03:37:05.161Z,967.00
2018-03-17T03:38:05.662Z,966.81
2018-03-17T03:39:06.061Z,967.08
2018-03-17T03:40:05.511Z,966.89
2018-03-17T03:41:05.117Z,966.84
2018-03-17T03:42:05.861Z,966.95
2018-03-17T03:43:10.178Z,966.78
2018-03-17T03:44:05.351Z,966.70
2018-03-17T03:45:05.719Z,966.78
2018-03-17T03:46:05.228Z,966.81
2018-03-17T03:47:05.441Z,966.76
2018-03-17T03:48:05.770Z,966.73
2018-03-17T03:49:05.390Z,966.73
2018-03-17T03:50:06.098Z,966.79
2018-03-17T03:51:05.144Z,966.76
2018-03-17T03:52:05.611Z,966.79
2018-03-17T03:53:05.740Z,966.63
2018-03-17T03:54:05.793Z,966.71
2018-03-17T03:55:05.875Z,966.68
2018-03-17T03:56:04.941Z,966.88
2018-03-17T03:57:05.207Z,966.90
2018-03-17T03:58:05.067Z,966.71
2018-03-17T03:59:05.504Z,966.88
2018-03-17T04:00:05.084Z,966.74
2018-03-17T04:01:05.798Z,967.04
2018-03-17T04:02:05.109Z,966.83
2018-03-17T04:03:05.207Z,966.94
2018-03-17T04:04:05.488Z,967.01
2018-03-17T04:05:04.930Z,966.91
2018-03-17T04:06:05.481Z,967.01
2018-03-17T04:07:05.179Z,967.04
2018-03-17T04:08:05.288Z,966.89
2018-03-17T04:09:05.645Z,966.83
2018-03-17T04:10:05.995Z,966.75
2018-03-17T04:11:05.767Z,966.89
2018-03-17T04:12:05.755Z,966.97
2018-03-17T04:13:05.200Z,966.78
2018-03-17T04:14:05.630Z,966.81
2018-03-17T04:15:05.962Z,966.76
2018-03-17T04:16:05.857Z,966.98
2018-03-17T04:17:05.477Z,966.98
2018-03-17T04:18:05.842Z,966.81
2018-03-17T04:19:04.977Z,966.85
2018-03-17T04:20:05.178Z,966.79
2018-03-17T04:21:05.874Z,966.79
2018-03-17T04:22:06.055Z,966.85
2018-03-17T04:23:05.640Z,967.01
2018-03-17T04:24:05.830Z,966.71
2018-03-17T04:25:05.360Z,966.74
2018-03-17T04:26:04.966Z,966.74
2018-03-17T04:27:04.827Z,966.77
2018-03-17T04:28:05.931Z,966.79
2018-03-17T04:29:05.012Z,966.88
2018-03-17T04:30:05.381Z,967.01
2018-03-17T04:31:04.863Z,966.96
2018-03-17T04:32:10.424Z,966.99
2018-03-17T04:33:05.618Z,966.88
2018-03-17T04:34:05.176Z,966.85
2018-03-17T04:35:05.465Z,966.88
2018-03-17T04:36:05.019Z,966.99
2018-03-17T04:37:05.412Z,967.01
2018-03-17T04:38:05.480Z,967.04
2018-03-17T04:39:05.479Z,966.86
2018-03-17T04:40:10.623Z,967.00
2018-03-17T04:41:05.457Z,967.04
2018-03-17T04:42:05.298Z,967.07
2018-03-17T04:43:05.142Z,967.21
2018-03-17T04:44:05.725Z,967.10
2018-03-17T04:45:05.564Z,966.92
2018-03-17T04:46:06.184Z,967.08
2018-03-17T04:47:05.183Z,966.95
2018-03-17T04:48:04.954Z,967.03
2018-03-17T04:49:05.505Z,967.05
2018-03-17T04:50:05.704Z,967.05
2018-03-17T04:51:05.343Z,967.01
2018-03-17T04:52:05.313Z,967.11
2018-03-17T04:53:05.018Z,967.11
2018-03-17T04:54:05.432Z,967.01
2018-03-17T04:55:05.272Z,967.03
2018-03-17T04:56:05.107Z,967.14
2018-03-17T04:57:05.016Z,966.98
2018-03-17T04:58:10.367Z,966.99
2018-03-17T04:59:05.307Z,966.99
2018-03-17T05:00:05.687Z,966.96
2018-03-17T05:01:05.282Z,966.96
2018-03-17T05:02:05.070Z,967.03
2018-03-17T05:03:05.658Z,967.03
2018-03-17T05:04:05.534Z,967.06
2018-03-17T05:05:05.395Z,966.99
2018-03-17T05:06:05.830Z,967.06
2018-03-17T05:07:06.291Z,967.07
2018-03-17T05:08:05.650Z,966.97
2018-03-17T05:09:05.779Z,966.97
2018-03-17T05:10:05.179Z,967.10
2018-03-17T05:11:05.570Z,967.12
2018-03-17T05:12:05.546Z,966.94
2018-03-17T05:13:04.989Z,967.01
2018-03-17T05:14:05.550Z,967.10
2018-03-17T05:15:05.357Z,967.15
2018-03-17T05:16:06.135Z,966.97
2018-03-17T05:17:05.783Z,967.02
2018-03-17T05:18:05.429Z,967.10
2018-03-17T05:19:10.527Z,967.02
2018-03-17T05:20:05.267Z,967.16
2018-03-17T05:21:05.369Z,967.22
2018-03-17T05:22:05.047Z,967.03
2018-03-17T05:23:05.483Z,967.08
2018-03-17T05:24:05.682Z,967.19
2018-03-17T05:25:06.017Z,967.17
2018-03-17T05:26:05.126Z,967.28
2018-03-17T05:27:04.919Z,967.06
2018-03-17T05:28:05.758Z,967.20
2018-03-17T05:29:05.453Z,967.20
2018-03-17T05:30:05.315Z,967.25
2018-03-17T05:31:05.906Z,967.14
2018-03-17T05:32:05.087Z,967.14
2018-03-17T05:33:05.791Z,967.14
2018-03-17T05:34:05.648Z,967.25
2018-03-17T05:35:05.722Z,967.09
2018-03-17T05:36:05.492Z,967.26
2018-03-17T05:37:05.402Z,967.20
2018-03-17T05:38:05.343Z,967.26
2018-03-17T05:39:05.368Z,967.17
2018-03-17T05:40:05.285Z,967.17
2018-03-17T05:41:05.174Z,967.20
2018-03-17T05:42:05.064Z,967.20
2018-03-17T05:43:06.735Z,967.12
2018-03-17T05:44:05.344Z,967.26
2018-03-17T05:45:05.067Z,967.07
2018-03-17T05:46:05.183Z,967.04
2018-03-17T05:47:05.670Z,967.00
2018-03-17T05:48:05.393Z,967.21
2018-03-17T05:49:05.069Z,967.10
2018-03-17T05:50:05.361Z,967.16
2018-03-17T05:51:05.433Z,967.21
2018-03-17T05:52:05.039Z,967.18
2018-03-17T05:53:04.977Z,967.32
2018-03-17T05:54:04.940Z,967.29
2018-03-17T05:55:05.374Z,967.32
2018-03-17T05:56:05.526Z,967.13
2018-03-17T05:57:04.931Z,967.30
2018-03-17T05:58:05.578Z,967.54
2018-03-17T05:59:05.032Z,967.45
2018-03-17T06:00:05.275Z,967.32
2018-03-17T06:01:05.543Z,967.27
2018-03-17T06:02:05.124Z,967.27
2018-03-17T06:03:04.889Z,967.30
2018-03-17T06:04:05.635Z,967.35
2018-03-17T06:05:05.058Z,967.54
2018-03-17T06:06:04.961Z,967.40
2018-03-17T06:07:05.864Z,967.48
2018-03-17T06:08:05.319Z,967.43
2018-03-17T06:09:05.165Z,967.30
2018-03-17T06:10:05.664Z,967.43
2018-03-17T06:11:05.813Z,967.30
2018-03-17T06:12:05.782Z,967.54
2018-03-17T06:13:05.293Z,967.31
2018-03-17T06:14:10.802Z,967.52
2018-03-17T06:15:05.139Z,967.31
2018-03-17T06:16:05.745Z,967.22
2018-03-17T06:17:05.077Z,967.36
2018-03-17T06:18:05.522Z,967.31
2018-03-17T06:19:06.344Z,967.23
2018-03-17T06:20:05.712Z,967.25
2018-03-17T06:21:05.577Z,967.36
2018-03-17T06:22:05.211Z,967.44
2018-03-17T06:23:05.222Z,967.34
2018-03-17T06:24:05.439Z,967.41
2018-03-17T06:25:05.451Z,967.41
2018-03-17T06:26:04.945Z,967.34
2018-03-17T06:27:05.780Z,967.50
2018-03-17T06:28:05.120Z,967.28
2018-03-17T06:29:05.210Z,967.47
2018-03-17T06:30:04.852Z,967.41
2018-03-17T06:31:05.352Z,967.20
2018-03-17T06:32:05.180Z,967.23
2018-03-17T06:33:05.003Z,967.39
2018-03-17T06:34:05.510Z,967.39
2018-03-17T06:35:05.360Z,967.23
2018-03-17T06:36:05.284Z,967.29
2018-03-17T06:37:05.325Z,967.31
2018-03-17T06:38:05.382Z,967.44
2018-03-17T06:39:05.559Z,967.42
2018-03-17T06:40:05.267Z,967.23
2018-03-17T06:41:05.744Z,967.21
2018-03-17T06:42:05.562Z,967.45
2018-03-17T06:43:04.843Z,967.21
2018-03-17T06:44:05.692Z,967.26
2018-03-17T06:45:05.561Z,967.53
2018-03-17T06:46:05.021Z,967.21
2018-03-17T06:47:04.939Z,967.32
2018-03-17T06:48:05.322Z,967.21
2018-03-17T06:49:06.105Z,967.45
2018-03-17T06:50:04.942Z,967.29
2018-03-17T06:51:05.740Z,967.34
2018-03-17T06:52:05.525Z,967.26
2018-03-17T06:53:05.138Z,967.15
2018-03-17T06:54:05.482Z,967.32
2018-03-17T06:55:05.028Z,967.32
2018-03-17T06:56:05.539Z,967.35
2018-03-17T06:57:05.314Z,967.42
2018-03-17T06:58:05.488Z,967.32
2018-03-17T06:59:05.693Z,967.32
2018-03-17T07:00:05.289Z,967.45
2018-03-17T07:01:04.987Z,967.35
2018-03-17T07:02:05.300Z,967.67
2018-03-17T07:03:05.320Z,967.39
2018-03-17T07:04:05.757Z,967.21
2018-03-17T07:05:05.218Z,967.39
2018-03-17T07:06:06.146Z,967.26
2018-03-17T07:07:05.346Z,967.35
2018-03-17T07:08:05.677Z,967.53
2018-03-17T07:09:05.311Z,967.42
2018-03-17T07:10:05.813Z,967.35
2018-03-17T07:11:04.966Z,967.48
2018-03-17T07:12:04.951Z,967.48
2018-03-17T07:13:05.843Z,967.35
2018-03-17T07:14:05.801Z,967.53
2018-03-17T07:15:05.503Z,967.51
2018-03-17T07:16:05.648Z,967.51
2018-03-17T07:17:04.907Z,967.32
2018-03-17T07:18:05.439Z,967.24
2018-03-17T07:19:05.964Z,967.32
2018-03-17T07:20:05.796Z,967.48
2018-03-17T07:21:05.386Z,967.19
2018-03-17T07:22:05.913Z,967.51
2018-03-17T07:23:05.676Z,967.62
2018-03-17T07:24:05.626Z,967.27
2018-03-17T07:25:05.310Z,967.19
2018-03-17T07:26:05.514Z,967.22
2018-03-17T07:27:10.039Z,967.27
2018-03-17T07:28:05.983Z,967.49
2018-03-17T07:29:06.116Z,967.40
2018-03-17T07:30:05.499Z,967.46
2018-03-17T07:31:05.298Z,967.43
2018-03-17T07:32:05.899Z,967.43
2018-03-17T07:33:05.846Z,967.24
2018-03-17T07:34:05.426Z,967.24
2018-03-17T07:35:05.375Z,967.43
2018-03-17T07:36:05.287Z,967.35
2018-03-17T07:37:04.953Z,967.43
2018-03-17T07:38:05.587Z,967.35
2018-03-17T07:39:05.688Z,967.46
2018-03-17T07:40:05.784Z,967.40
2018-03-17T07:41:05.150Z,967.27
2018-03-17T07:42:05.609Z,967.25
2018-03-17T07:43:05.094Z,967.43
2018-03-17T07:44:06.855Z,967.22
2018-03-17T07:45:05.330Z,967.40
2018-03-17T07:46:04.924Z,967.40
2018-03-17T07:47:06.452Z,967.33
2018-03-17T07:48:05.827Z,967.33
2018-03-17T07:49:05.828Z,967.33
2018-03-17T07:50:06.549Z,967.19
2018-03-17T07:51:05.432Z,967.16
2018-03-17T07:52:05.194Z,967.30
2018-03-17T07:53:04.885Z,967.40
2018-03-17T07:54:05.850Z,967.33
2018-03-17T07:55:05.285Z,967.36
2018-03-17T07:56:05.199Z,967.65
2018-03-17T07:57:04.941Z,967.33
2018-03-17T07:58:05.591Z,967.46
2018-03-17T07:59:05.140Z,967.36
2018-03-17T08:00:05.267Z,967.35
2018-03-17T08:01:05.334Z,967.40
2018-03-17T08:02:05.326Z,967.46
2018-03-17T08:03:05.059Z,967.62
2018-03-17T08:04:05.372Z,967.54
2018-03-17T08:05:05.827Z,967.51
2018-03-17T08:06:05.755Z,967.54
2018-03-17T08:07:05.473Z,967.49
2018-03-17T08:08:09.953Z,967.54
2018-03-17T08:09:06.107Z,967.46
2018-03-17T08:10:05.771Z,967.54
2018-03-17T08:11:04.985Z,967.57
2018-03-17T08:12:05.637Z,967.36
2018-03-17T08:13:05.232Z,967.54
2018-03-17T08:14:05.408Z,967.57
2018-03-17T08:15:05.303Z,967.33
2018-03-17T08:16:05.093Z,967.33
2018-03-17T08:17:05.128Z,967.54
2018-03-17T08:18:05.553Z,967.51
2018-03-17T08:19:05.505Z,967.40
2018-03-17T08:20:05.347Z,967.33
2018-03-17T08:21:06.022Z,967.43
2018-03-17T08:22:05.854Z,967.54
2018-03-17T08:23:05.327Z,967.46
2018-03-17T08:24:10.316Z,967.27
2018-03-17T08:25:05.577Z,967.24
2018-03-17T08:26:05.058Z,967.48
2018-03-17T08:27:05.225Z,967.35
2018-03-17T08:28:05.091Z,967.19
2018-03-17T08:29:05.523Z,967.35
2018-03-17T08:30:05.818Z,967.32
2018-03-17T08:31:05.683Z,967.45
2018-03-17T08:32:05.555Z,967.21
2018-03-17T08:33:05.121Z,967.24
2018-03-17T08:34:05.067Z,967.29
2018-03-17T08:35:05.973Z,967.13
2018-03-17T08:36:05.289Z,967.10
2018-03-17T08:37:05.737Z,967.21
2018-03-17T08:38:06.024Z,967.12
2018-03-17T08:39:04.925Z,967.34
2018-03-17T08:40:04.872Z,967.21
2018-03-17T08:41:05.944Z,967.21
2018-03-17T08:42:05.732Z,967.21
2018-03-17T08:43:05.630Z,967.15
2018-03-17T08:44:05.815Z,967.15
2018-03-17T08:45:05.446Z,967.12
2018-03-17T08:46:05.652Z,967.20
2018-03-17T08:47:05.519Z,967.15
2018-03-17T08:48:05.158Z,967.01
2018-03-17T08:49:06.119Z,967.31
2018-03-17T08:50:05.796Z,967.20
2018-03-17T08:51:05.865Z,967.23
2018-03-17T08:52:05.707Z,967.12
2018-03-17T08:53:05.899Z,967.42
2018-03-17T08:54:05.486Z,967.20
2018-03-17T08:55:05.381Z,967.28
2018-03-17T08:56:05.805Z,967.34
2018-03-17T08:57:05.065Z,967.28
2018-03-17T08:58:05.367Z,967.26
2018-03-17T08:59:05.593Z,967.23
2018-03-17T09:00:05.387Z,967.44
2018-03-17T09:01:06.108Z,967.25
2018-03-17T09:02:05.649Z,967.47
2018-03-17T09:03:04.974Z,967.36
2018-03-17T09:04:04.960Z,967.20
2018-03-17T09:05:05.413Z,967.39
2018-03-17T09:06:05.618Z,967.44
2018-03-17T09:07:05.162Z,967.44
2018-03-17T09:08:05.903Z,967.41
2018-03-17T09:09:05.189Z,967.23
2018-03-17T09:10:05.336Z,967.44
2018-03-17T09:11:05.853Z,967.34
2018-03-17T09:12:05.794Z,967.49
2018-03-17T09:13:05.618Z,967.31
2018-03-17T09:14:05.451Z,967.31
2018-03-17T09:15:05.107Z,967.52
2018-03-17T09:16:05.288Z,967.28
2018-03-17T09:17:05.413Z,967.33
2018-03-17T09:18:05.433Z,967.25
2018-03-17T09:19:05.548Z,967.44
2018-03-17T09:20:05.141Z,967.25
2018-03-17T09:21:05.856Z,967.46
2018-03-17T09:22:04.852Z,967.25
2018-03-17T09:23:05.378Z,967.20
2018-03-17T09:24:05.575Z,967.44
2018-03-17T09:25:04.956Z,967.41
2018-03-17T09:26:05.445Z,967.31
2018-03-17T09:27:10.909Z,967.36
2018-03-17T09:28:05.670Z,967.47
2018-03-17T09:29:05.385Z,967.28
2018-03-17T09:30:05.725Z,967.36
2018-03-17T09:31:05.158Z,967.31
2018-03-17T09:32:05.903Z,967.44
2018-03-17T09:33:05.524Z,967.63
2018-03-17T09:34:05.553Z,967.41
2018-03-17T09:35:05.169Z,967.34
2018-03-17T09:36:05.311Z,967.55
2018-03-17T09:37:05.404Z,967.66
2018-03-17T09:38:05.618Z,967.34
2018-03-17T09:39:05.383Z,967.44
2018-03-17T09:40:05.178Z,967.34
2018-03-17T09:41:05.094Z,967.23
2018-03-17T09:42:05.805Z,967.41
2018-03-17T09:43:05.358Z,967.31
2018-03-17T09:44:05.563Z,967.47
2018-03-17T09:45:05.019Z,967.36
2018-03-17T09:46:05.305Z,967.28
2018-03-17T09:47:06.099Z,967.41
2018-03-17T09:48:05.247Z,967.39
2018-03-17T09:49:05.316Z,967.26
2018-03-17T09:50:04.984Z,967.31
2018-03-17T09:51:05.699Z,967.55
2018-03-17T09:52:05.734Z,967.31
2018-03-17T09:53:05.219Z,967.39
2018-03-17T09:54:05.724Z,967.44
2018-03-17T09:55:05.290Z,967.26
2018-03-17T09:56:05.381Z,967.58
2018-03-17T09:57:04.933Z,967.41
2018-03-17T09:58:05.715Z,967.34
2018-03-17T09:59:05.434Z,967.34
2018-03-17T10:00:05.306Z,967.47
2018-03-17T10:01:05.102Z,967.44
2018-03-17T10:02:05.599Z,967.36
2018-03-17T10:03:05.830Z,967.34
2018-03-17T10:04:05.662Z,967.36
2018-03-17T10:05:05.370Z,967.36
2018-03-17T10:06:05.219Z,967.55
2018-03-17T10:07:05.530Z,967.36
2018-03-17T10:08:05.202Z,967.41
2018-03-17T10:09:05.480Z,967.22
2018-03-17T10:10:04.844Z,967.31
2018-03-17T10:11:05.613Z,967.31
2018-03-17T10:12:05.291Z,967.34
2018-03-17T10:13:05.030Z,967.36
2018-03-17T10:14:04.964Z,967.25
2018-03-17T10:15:05.521Z,967.44
2018-03-17T10:16:05.682Z,967.36
2018-03-17T10:17:05.576Z,967.41
2018-03-17T10:18:05.261Z,967.44
2018-03-17T10:19:05.250Z,967.39
2018-03-17T10:20:05.310Z,967.53
2018-03-17T10:21:05.140Z,967.55
2018-03-17T10:22:05.813Z,967.55
2018-03-17T10:23:05.262Z,967.50
2018-03-17T10:24:04.997Z,967.34
2018-03-17T10:25:04.905Z,967.50
2018-03-17T10:26:05.512Z,967.34
2018-03-17T10:27:05.025Z,967.50
2018-03-17T10:28:05.525Z,967.29
2018-03-17T10:29:04.945Z,967.47
2018-03-17T10:30:05.545Z,967.39
2018-03-17T10:31:05.171Z,967.47
2018-03-17T10:32:05.867Z,967.28
2018-03-17T10:33:05.555Z,967.50
2018-03-17T10:34:10.118Z,967.47
2018-03-17T10:35:05.348Z,967.52
2018-03-17T10:36:05.508Z,967.31
2018-03-17T10:37:05.258Z,967.49
2018-03-17T10:38:05.787Z,967.30
2018-03-17T10:39:05.198Z,967.25
2018-03-17T10:40:05.794Z,967.30
2018-03-17T10:41:05.351Z,967.27
2018-03-17T10:42:05.412Z,967.22
2018-03-17T10:43:05.751Z,967.40
2018-03-17T10:44:05.109Z,967.27
2018-03-17T10:45:05.252Z,967.25
2018-03-17T10:46:05.588Z,967.33
2018-03-17T10:47:05.075Z,967.25
2018-03-17T10:48:05.459Z,967.25
2018-03-17T10:49:05.153Z,967.54
2018-03-17T10:50:05.587Z,967.36
2018-03-17T10:51:05.466Z,967.49
2018-03-17T10:52:04.914Z,967.30
2018-03-17T10:53:05.460Z,967.43
2018-03-17T10:54:05.347Z,967.54
2018-03-17T10:55:04.941Z,967.49
2018-03-17T10:56:04.857Z,967.36
2018-03-17T10:57:05.409Z,967.40
2018-03-17T10:58:05.046Z,967.54
2018-03-17T10:59:05.493Z,967.43
2018-03-17T11:00:05.087Z,967.46
2018-03-17T11:01:05.045Z,967.30
2018-03-17T11:02:05.311Z,967.43
2018-03-17T11:03:05.627Z,967.43
2018-03-17T11:04:05.629Z,967.30
2018-03-17T11:05:05.374Z,967.40
2018-03-17T11:06:05.323Z,967.35
2018-03-17T11:07:05.256Z,967.35
2018-03-17T11:08:05.286Z,967.19
2018-03-17T11:09:05.785Z,967.29
2018-03-17T11:10:05.741Z,967.48
2018-03-17T11:11:05.297Z,967.39
2018-03-17T11:12:05.343Z,967.50
2018-03-17T11:13:05.679Z,967.45
2018-03-17T11:14:05.356Z,967.21
2018-03-17T11:15:05.222Z,967.35
2018-03-17T11:16:05.419Z,967.62
2018-03-17T11:17:05.674Z,967.56
2018-03-17T11:18:05.539Z,967.40
2018-03-17T11:19:05.438Z,967.39
2018-03-17T11:20:05.688Z,967.21
2018-03-17T11:21:05.820Z,967.21
2018-03-17T11:22:05.171Z,967.53
2018-03-17T11:23:05.845Z,967.45
2018-03-17T11:24:05.363Z,967.29
2018-03-17T11:25:05.479Z,967.39
2018-03-17T11:26:05.856Z,967.47
2018-03-17T11:27:06.764Z,967.58
2018-03-17T11:28:05.332Z,967.45
2018-03-17T11:29:05.057Z,967.42
2018-03-17T11:30:05.350Z,967.50
2018-03-17T11:31:05.503Z,967.32
2018-03-17T11:32:05.204Z,967.48
2018-03-17T11:33:04.928Z,967.50
2018-03-17T11:34:05.457Z,967.32
2018-03-17T11:35:04.999Z,967.39
2018-03-17T11:36:05.778Z,967.50
2018-03-17T11:37:05.193Z,967.45
2018-03-17T11:38:05.897Z,967.56
2018-03-17T11:39:05.256Z,967.61
2018-03-17T11:40:05.353Z,967.45
2018-03-17T11:41:05.310Z,967.32
2018-03-17T11:42:05.024Z,967.58
2018-03-17T11:43:05.663Z,967.44
2018-03-17T11:44:05.401Z,967.31
2018-03-17T11:45:04.847Z,967.47
2018-03-17T11:46:05.598Z,967.20
2018-03-17T11:47:05.184Z,967.44
2018-03-17T11:48:05.201Z,967.23
2018-03-17T11:49:05.623Z,967.20
2018-03-17T11:50:05.220Z,967.34
2018-03-17T11:51:05.726Z,967.42
2018-03-17T11:52:05.058Z,967.41
2018-03-17T11:53:04.943Z,967.31
2018-03-17T11:54:05.314Z,967.12
2018-03-17T11:55:05.524Z,967.34
2018-03-17T11:56:05.364Z,967.39
2018-03-17T11:57:05.098Z,967.23
2018-03-17T11:58:05.736Z,967.31
2018-03-17T11:59:05.366Z,967.50
2018-03-17T12:00:05.018Z,967.47
2018-03-17T12:01:05.163Z,967.18
2018-03-17T12:02:04.993Z,967.35
2018-03-17T12:03:05.342Z,967.13
2018-03-17T12:04:05.245Z,967.13
2018-03-17T12:05:05.089Z,967.35
2018-03-17T12:06:04.915Z,967.29
2018-03-17T12:07:05.304Z,967.32
2018-03-17T12:08:05.005Z,967.32
2018-03-17T12:09:05.602Z,967.35
2018-03-17T12:10:05.380Z,967.26
2018-03-17T12:11:05.867Z,967.07
2018-03-17T12:12:05.384Z,967.18
2018-03-17T12:13:04.971Z,967.15
2018-03-17T12:14:05.104Z,967.23
2018-03-17T12:15:05.679Z,967.29
2018-03-17T12:16:05.370Z,967.15
2018-03-17T12:17:05.325Z,967.34
2018-03-17T12:18:05.344Z,967.10
2018-03-17T12:19:05.777Z,967.01
2018-03-17T12:20:05.564Z,967.18
2018-03-17T12:21:05.555Z,967.18
2018-03-17T12:22:05.210Z,967.04
2018-03-17T12:23:05.861Z,967.21
2018-03-17T12:24:05.384Z,967.07
2018-03-17T12:25:05.279Z,967.21
2018-03-17T12:26:05.833Z,967.01
2018-03-17T12:27:05.740Z,967.04
2018-03-17T12:28:05.189Z,967.07